Kimolos, Greece
Current Conditions -  °F | °C
As of 3:50 AM on Sunday 26 Oct 2014 (Local Time) from LGSR Reporting Station
Light Rain Light Rain  
Wind Chill: 64°   Ceiling: NA
Heat Index: 64°   Visibility: NA
Dew Point: 57°   Wind: 10mph
Humidity: 77%   Direction: 10°N
Pressure: 29.91"   Gusts: NA
Location:  36.79°N, 24.57°E
Report Text: LGSR 260050Z AUTO 01009KT //// -RA ////// 18/14 Q1013 RE//
Loading
Personal Weather Stations






























Interactive Weather Map
Tropical Storm Tracking
New forecast layout! Learn more

10-Day Weather Forecast

Advertisements
Track Severe Weather on mobile